Terminal Aerodrome Forecast
Issued by NWS

Home | Current Version | Previous Version | Text Only | Print | Product List | Glossary On
Versions: 1 2 3 4 5 6 7 8 9 10 11 12 13 14 15 16 17 18 19 20 21 22
000
FTUS43 KPAH 031729
TAFCGI
TAF
KCGI 031729Z 0318/0418 20010KT 2SM BR OVC005
      TEMPO 0318/0322 1/2SM FG OVC002
     FM032200 21012KT 4SM -SHRA BR OVC005
     FM040200 33010KT 2SM -RA BR OVC003
     FM041200 01013G21KT 4SM -SNPL BR OVC005=

USA.gov is the U.S. government's official web portal to all federal, state and local government web resources and services.